Time;durP1;ratioP1;P1;durP2;ratioP2;P2;SDS_P1;SDS_P2;PMS_P1;PMS_P2;Temp;Humidity;BMP_temperature;BMP_pressure;BME280_temperature;BME280_humidity;BME280_pressure;Samples;Min_cycle;Max_cycle;Signal;HPM_P1;HPM_P2
2022/03/03 00:00:39;;;;;;;9.00;4.83;;;1.30;69.40;;;;;;5048071;28;20171;-66
2022/03/03 00:03:07;;;;;;;6.50;3.15;;;1.30;69.60;;;;;;5057783;28;20113;-66
2022/03/03 00:05:34;;;;;;;7.53;3.80;;;1.30;69.50;;;;;;5053347;28;20405;-65
2022/03/03 00:08:02;;;;;;;7.00;3.15;;;1.30;69.60;;;;;;5054939;28;20044;-66
2022/03/03 00:10:32;;;;;;;6.78;3.28;;;1.20;69.80;;;;;;5056343;28;20159;-64
2022/03/03 00:13:01;;;;;;;9.35;3.42;;;1.20;69.90;;;;;;5053497;28;20036;-66
2022/03/03 00:15:28;;;;;;;10.02;2.97;;;1.20;69.90;;;;;;5052927;28;20095;-66
2022/03/03 00:17:56;;;;;;;8.85;4.07;;;1.20;70.10;;;;;;5053341;28;20049;-65
2022/03/03 00:20:24;;;;;;;9.38;4.35;;;1.20;70.00;;;;;;5053282;28;20059;-65
2022/03/03 00:22:51;;;;;;;6.47;3.35;;;1.20;69.90;;;;;;5054980;28;20044;-65
2022/03/03 00:25:19;;;;;;;6.63;2.90;;;1.20;69.90;;;;;;5053112;28;20051;-64
2022/03/03 00:27:47;;;;;;;11.25;3.92;;;1.20;69.90;;;;;;5052103;28;20055;-65
2022/03/03 00:30:15;;;;;;;6.38;3.40;;;1.20;69.80;;;;;;5047654;28;20055;-65
2022/03/03 00:32:46;;;;;;;6.38;3.38;;;1.10;69.80;;;;;;5048642;28;20040;-64
2022/03/03 00:35:14;;;;;;;7.05;3.15;;;1.10;69.90;;;;;;5051944;28;20075;-66
2022/03/03 00:37:41;;;;;;;7.20;3.13;;;1.00;70.00;;;;;;5052145;28;20078;-66
2022/03/03 00:40:10;;;;;;;11.00;3.50;;;1.10;70.00;;;;;;5056463;28;20077;-65
2022/03/03 00:42:37;;;;;;;5.57;3.20;;;1.00;70.10;;;;;;5051543;28;20413;-64
2022/03/03 00:45:06;;;;;;;10.38;4.60;;;1.00;70.10;;;;;;5048753;28;20079;-65
2022/03/03 00:47:34;;;;;;;6.20;3.35;;;1.00;70.10;;;;;;5059659;28;20045;-65
2022/03/03 00:50:02;;;;;;;7.15;3.03;;;1.00;70.10;;;;;;5073405;28;20074;-66
2022/03/03 00:52:29;;;;;;;10.30;3.80;;;0.90;70.20;;;;;;5073937;28;20464;-64
2022/03/03 00:54:56;;;;;;;7.35;2.85;;;0.90;70.40;;;;;;5053714;28;20051;-66
2022/03/03 00:57:24;;;;;;;7.20;3.00;;;0.90;70.40;;;;;;5051256;28;20040;-65
2022/03/03 00:59:52;;;;;;;9.77;3.47;;;0.80;70.50;;;;;;5050412;28;20071;-65
2022/03/03 01:02:19;;;;;;;7.80;3.97;;;0.80;70.50;;;;;;5048723;28;20573;-66
2022/03/03 01:04:47;;;;;;;6.43;3.13;;;0.80;70.50;;;;;;5051335;28;20067;-65
2022/03/03 01:07:15;;;;;;;10.10;3.58;;;0.80;70.40;;;;;;5051841;28;20068;-68
2022/03/03 01:09:43;;;;;;;7.85;3.20;;;0.80;70.30;;;;;;5050251;28;20265;-66
2022/03/03 01:12:11;;;;;;;7.28;3.05;;;0.80;70.30;;;;;;5050353;28;20055;-66
2022/03/03 01:14:38;;;;;;;12.80;4.05;;;0.80;70.40;;;;;;5051527;28;20051;-65
2022/03/03 01:17:06;;;;;;;8.27;3.58;;;0.80;70.50;;;;;;5054626;28;20061;-66
2022/03/03 01:19:39;;;;;;;9.10;3.63;;;0.70;70.50;;;;;;5052328;28;20052;-67
2022/03/03 01:22:10;;;;;;;7.07;2.65;;;0.70;70.70;;;;;;5052370;28;20123;-66
2022/03/03 01:24:38;;;;;;;7.18;3.58;;;0.70;70.70;;;;;;5051736;28;20045;-66
2022/03/03 01:27:05;;;;;;;8.25;4.07;;;0.60;70.80;;;;;;5050037;28;20518;-66
2022/03/03 01:29:35;;;;;;;7.18;3.33;;;0.60;70.80;;;;;;5049672;28;20043;-64
2022/03/03 01:32:03;;;;;;;7.37;3.60;;;0.60;71.00;;;;;;5067651;28;20039;-65
2022/03/03 01:34:31;;;;;;;4.95;3.08;;;0.60;71.10;;;;;;5071817;28;20514;-64
2022/03/03 01:36:58;;;;;;;7.90;2.85;;;0.60;71.10;;;;;;5063216;28;20052;-66
2022/03/03 01:39:30;;;;;;;6.75;3.15;;;0.60;71.20;;;;;;5053433;28;20053;-64
2022/03/03 01:41:58;;;;;;;6.78;3.63;;;0.60;71.10;;;;;;5054133;28;20138;-64
2022/03/03 01:44:26;;;;;;;8.68;3.40;;;0.50;71.10;;;;;;5054138;28;20060;-65
2022/03/03 01:46:55;;;;;;;6.53;3.20;;;0.50;71.00;;;;;;5051255;28;20048;-66
2022/03/03 01:49:30;;;;;;;7.15;2.97;;;0.50;71.00;;;;;;5053552;28;20070;-65
2022/03/03 01:51:57;;;;;;;9.40;3.20;;;0.50;71.10;;;;;;5068832;28;20406;-65
2022/03/03 01:54:24;;;;;;;7.15;3.53;;;0.50;71.00;;;;;;5054209;28;20040;-66
2022/03/03 01:56:53;;;;;;;8.90;3.58;;;0.50;71.10;;;;;;5054081;28;20222;-64
2022/03/03 02:02:03;;;;;;;4.88;2.72;;;0.40;71.30;;;;;;5047478;28;20075;-66
2022/03/03 02:04:31;;;;;;;9.68;3.65;;;0.40;71.30;;;;;;5053722;28;20049;-65
2022/03/03 02:07:00;;;;;;;6.88;3.35;;;0.40;71.40;;;;;;5052383;28;20040;-65
2022/03/03 02:09:28;;;;;;;9.27;4.30;;;0.40;71.40;;;;;;5040354;28;20114;-65
2022/03/03 02:11:57;;;;;;;7.53;3.90;;;0.40;71.40;;;;;;5050277;28;20148;-65
2022/03/03 02:14:25;;;;;;;6.50;3.83;;;0.40;71.20;;;;;;5051324;28;20132;-65
2022/03/03 02:16:52;;;;;;;8.82;3.67;;;0.40;71.30;;;;;;5048736;28;20036;-64
2022/03/03 02:19:30;;;;;;;7.93;3.42;;;0.30;71.40;;;;;;5051722;28;20135;-64
2022/03/03 02:22:04;;;;;;;5.40;3.03;;;0.30;71.40;;;;;;5065496;28;20064;-64
2022/03/03 02:24:34;;;;;;;6.60;3.30;;;0.30;71.40;;;;;;5052645;28;20589;-64
2022/03/03 02:27:02;;;;;;;6.77;2.80;;;0.30;71.60;;;;;;5047093;28;20056;-65
2022/03/03 02:29:31;;;;;;;9.23;4.13;;;0.30;71.50;;;;;;5053467;28;20510;-65
2022/03/03 02:32:03;;;;;;;6.70;2.90;;;0.20;71.60;;;;;;5052905;28;20078;-66
2022/03/03 02:34:31;;;;;;;6.82;3.25;;;0.20;71.60;;;;;;5053696;28;20061;-64
2022/03/03 02:37:06;;;;;;;7.68;3.30;;;0.30;71.90;;;;;;5052078;28;20144;-65
2022/03/03 02:39:41;;;;;;;5.72;2.65;;;0.20;71.80;;;;;;5072734;28;20172;-64
2022/03/03 02:42:12;;;;;;;8.65;3.65;;;0.20;71.90;;;;;;5054889;28;20056;-64
2022/03/03 02:44:40;;;;;;;7.32;3.25;;;0.20;71.80;;;;;;5053853;28;20048;-64
2022/03/03 02:47:08;;;;;;;5.68;3.13;;;0.20;71.80;;;;;;5071051;28;20044;-64
2022/03/03 02:49:35;;;;;;;5.20;2.50;;;0.20;71.80;;;;;;5054555;28;20048;-65
2022/03/03 02:52:06;;;;;;;9.10;3.20;;;0.20;71.80;;;;;;5053473;28;20443;-66
2022/03/03 02:54:38;;;;;;;7.82;3.47;;;0.20;71.90;;;;;;5053921;28;20127;-67
2022/03/03 02:59:54;;;;;;;9.25;3.80;;;0.20;72.00;;;;;;5052643;28;20060;-65
2022/03/03 03:02:22;;;;;;;8.80;4.10;;;0.20;72.10;;;;;;5050605;28;20055;-64
2022/03/03 03:04:52;;;;;;;9.20;3.67;;;0.20;72.10;;;;;;5048262;28;20714;-65
2022/03/03 03:07:25;;;;;;;6.95;3.25;;;0.10;72.20;;;;;;5050080;28;20292;-65
2022/03/03 03:09:54;;;;;;;6.50;3.63;;;0.10;72.30;;;;;;5046077;28;20132;-65
2022/03/03 03:12:24;;;;;;;6.43;3.55;;;0.10;72.20;;;;;;5050367;28;21426;-65
2022/03/03 03:14:51;;;;;;;6.00;3.22;;;0.10;72.20;;;;;;5053079;28;20038;-66
2022/03/03 03:17:22;;;;;;;7.05;3.05;;;0.20;72.40;;;;;;5052524;28;20048;-65
2022/03/03 03:19:54;;;;;;;9.18;3.53;;;0.10;72.40;;;;;;5051860;28;21220;-65
2022/03/03 03:22:21;;;;;;;7.63;3.50;;;0.20;72.40;;;;;;5051570;28;20044;-64
2022/03/03 03:24:50;;;;;;;9.43;3.75;;;0.20;72.40;;;;;;5054288;28;20063;-66
2022/03/03 03:27:20;;;;;;;8.63;4.15;;;0.10;72.50;;;;;;5053349;28;20040;-64
2022/03/03 03:29:48;;;;;;;7.75;4.00;;;0.20;72.50;;;;;;5054693;28;20099;-64
2022/03/03 03:32:17;;;;;;;7.60;3.15;;;0.10;72.60;;;;;;5053254;28;20055;-65
2022/03/03 03:34:45;;;;;;;7.10;3.13;;;0.10;72.70;;;;;;5053320;28;20044;-64
2022/03/03 03:37:16;;;;;;;9.55;4.00;;;0.10;72.60;;;;;;5054209;28;20066;-64
2022/03/03 03:39:50;;;;;;;5.72;3.40;;;0.10;72.50;;;;;;5054417;28;20157;-63
2022/03/03 03:42:20;;;;;;;10.05;4.07;;;0.20;72.50;;;;;;5053980;28;20067;-66
2022/03/03 03:44:50;;;;;;;6.07;2.83;;;0.10;72.40;;;;;;5051496;28;20102;-64
2022/03/03 03:47:17;;;;;;;5.75;2.88;;;0.10;72.50;;;;;;5054314;28;20060;-64
2022/03/03 03:49:45;;;;;;;6.47;3.08;;;0.00;72.50;;;;;;5052739;28;20619;-65
2022/03/03 03:52:14;;;;;;;10.07;3.92;;;0.10;72.50;;;;;;5054671;28;20041;-65
2022/03/03 03:54:41;;;;;;;7.68;3.33;;;0.00;72.50;;;;;;5051904;28;20033;-64
2022/03/03 03:57:09;;;;;;;5.50;3.53;;;0.00;72.60;;;;;;5047941;28;20048;-65
2022/03/03 03:59:37;;;;;;;4.72;2.72;;;0.00;72.60;;;;;;5053508;28;20652;-66
2022/03/03 04:02:05;;;;;;;9.68;3.50;;;0.00;72.70;;;;;;5051251;28;20052;-65
2022/03/03 04:04:32;;;;;;;8.27;3.10;;;-3276.70;72.80;;;;;;5051583;28;20053;-65
2022/03/03 04:06:59;;;;;;;8.80;3.42;;;0.00;72.80;;;;;;5052065;28;20060;-65
2022/03/03 04:09:27;;;;;;;5.68;3.13;;;0.00;72.70;;;;;;5054084;28;20060;-64
2022/03/03 04:11:55;;;;;;;9.82;3.45;;;-3276.70;72.70;;;;;;5055203;28;20049;-65
2022/03/03 04:14:23;;;;;;;8.43;3.72;;;-3276.70;72.80;;;;;;5053107;28;20051;-64
2022/03/03 04:16:56;;;;;;;6.93;3.40;;;0.00;72.70;;;;;;5056315;28;20060;-64
2022/03/03 04:19:24;;;;;;;7.70;3.97;;;-3276.70;72.70;;;;;;5056643;28;20063;-68
2022/03/03 04:21:53;;;;;;;7.80;3.22;;;-3276.70;72.80;;;;;;5055813;28;20383;-65
2022/03/03 04:24:20;;;;;;;11.13;3.78;;;-3276.70;72.80;;;;;;5056749;28;20162;-68
2022/03/03 04:26:47;;;;;;;9.60;3.88;;;-3276.70;72.70;;;;;;5056281;28;20040;-67
2022/03/03 04:29:14;;;;;;;5.68;3.38;;;-3276.70;72.80;;;;;;5055522;28;20072;-63
2022/03/03 04:31:42;;;;;;;5.97;3.92;;;-3276.70;72.80;;;;;;5073091;28;20135;-64
2022/03/03 04:34:16;;;;;;;5.55;3.08;;;-3276.60;72.80;;;;;;5074752;28;20131;-66
2022/03/03 04:36:43;;;;;;;4.13;2.45;;;-3276.60;72.80;;;;;;5060263;28;20489;-65
2022/03/03 04:39:11;;;;;;;5.25;2.35;;;-3276.60;72.70;;;;;;5070115;28;20060;-63
2022/03/03 04:41:39;;;;;;;5.28;2.50;;;-3276.60;72.80;;;;;;5073015;28;20060;-65
2022/03/03 04:44:07;;;;;;;8.77;3.90;;;-3276.60;72.80;;;;;;5068620;28;20083;-64
2022/03/03 04:46:35;;;;;;;6.28;2.88;;;-3276.60;72.90;;;;;;5056103;28;21947;-64
2022/03/03 04:49:04;;;;;;;5.50;2.90;;;-3276.60;72.90;;;;;;5055860;28;20113;-64
2022/03/03 04:51:36;;;;;;;6.40;3.00;;;-3276.60;72.90;;;;;;5057537;28;20039;-67
2022/03/03 04:54:04;;;;;;;7.97;3.42;;;-3276.60;73.00;;;;;;5054420;28;20130;-65
2022/03/03 04:56:32;;;;;;;6.68;2.47;;;-3276.60;73.20;;;;;;5055937;28;20131;-64
2022/03/03 04:58:59;;;;;;;5.75;2.78;;;-3276.60;73.30;;;;;;5054707;28;20399;-64
2022/03/03 05:01:27;;;;;;;14.80;2.88;;;-3276.60;73.30;;;;;;5053620;28;20053;-66
2022/03/03 05:03:55;;;;;;;9.98;3.58;;;-3276.60;73.20;;;;;;5057347;28;20045;-68
2022/03/03 05:06:22;;;;;;;7.85;2.47;;;-3276.60;73.20;;;;;;5054756;28;20048;-63
2022/03/03 05:08:54;;;;;;;5.93;3.10;;;-3276.60;73.10;;;;;;5054489;28;20044;-63
2022/03/03 05:11:39;;;;;;;7.30;3.47;;;-3276.70;73.20;;;;;;5053086;28;20044;-64
2022/03/03 05:14:11;;;;;;;10.98;3.38;;;-3276.70;73.20;;;;;;5055795;28;20041;-66
2022/03/03 05:16:41;;;;;;;4.82;2.35;;;-3276.60;73.20;;;;;;5055300;28;20421;-64
2022/03/03 05:19:12;;;;;;;9.20;3.75;;;-3276.60;73.20;;;;;;5054238;28;21079;-64
2022/03/03 05:21:47;;;;;;;6.05;2.55;;;-3276.60;73.10;;;;;;5057394;28;20485;-64
2022/03/03 05:24:17;;;;;;;7.15;3.58;;;-3276.60;73.00;;;;;;5056882;28;20048;-64
2022/03/03 05:26:44;;;;;;;4.03;1.88;;;-3276.60;72.90;;;;;;5051565;28;20643;-64
2022/03/03 05:29:11;;;;;;;5.80;3.10;;;-3276.60;72.90;;;;;;5066097;28;20048;-64
2022/03/03 05:31:42;;;;;;;8.63;3.72;;;-3276.60;73.00;;;;;;5054947;28;20223;-65
2022/03/03 05:34:10;;;;;;;7.22;3.75;;;-3276.60;73.10;;;;;;5056455;28;20056;-65
2022/03/03 05:36:40;;;;;;;4.50;2.85;;;-3276.60;73.20;;;;;;5055291;28;20063;-65
2022/03/03 05:39:10;;;;;;;;;;;-3276.60;73.30;;;;;;5057634;28;20179;-66
2022/03/03 05:41:42;;;;;;;10.77;2.53;;;-3276.60;73.20;;;;;;5056639;28;20043;-64
2022/03/03 05:44:15;;;;;;;9.85;3.42;;;-3276.60;73.30;;;;;;5057085;28;20135;-65
2022/03/03 05:46:43;;;;;;;15.25;3.78;;;-3276.60;73.20;;;;;;5052656;28;20049;-64
2022/03/03 05:49:11;;;;;;;8.68;4.13;;;-3276.50;73.30;;;;;;5054710;28;21366;-63
2022/03/03 05:51:39;;;;;;;6.78;3.05;;;-3276.50;73.30;;;;;;5055616;28;20110;-63
2022/03/03 05:54:06;;;;;;;6.25;2.95;;;-3276.50;73.30;;;;;;5057477;28;20048;-65
2022/03/03 05:56:38;;;;;;;10.85;4.05;;;-3276.60;73.20;;;;;;5055217;28;20048;-64
2022/03/03 05:59:09;;;;;;;7.63;3.45;;;-3276.60;73.20;;;;;;5064821;28;20139;-66
2022/03/03 06:01:38;;;;;;;6.53;2.70;;;-3276.60;73.20;;;;;;5053283;28;20036;-64
2022/03/03 06:04:10;;;;;;;12.45;3.95;;;-3276.60;73.20;;;;;;5060279;28;20044;-64
2022/03/03 06:06:39;;;;;;;5.83;2.73;;;-3276.50;73.20;;;;;;5057168;28;20413;-64
2022/03/03 06:09:13;;;;;;;6.90;3.60;;;-3276.50;73.20;;;;;;5057608;28;20041;-64
2022/03/03 06:11:47;;;;;;;7.13;3.38;;;-3276.40;73.30;;;;;;5056509;28;20595;-65
2022/03/03 06:14:19;;;;;;;8.27;3.30;;;-3276.50;73.40;;;;;;5057384;28;20281;-64
2022/03/03 06:16:48;;;;;;;6.18;2.95;;;-3276.50;73.30;;;;;;5052855;28;20047;-63
2022/03/03 06:19:16;;;;;;;5.93;3.28;;;-3276.50;73.40;;;;;;5054384;28;20049;-66
2022/03/03 06:21:49;;;;;;;5.70;2.92;;;-3276.50;73.10;;;;;;5053583;28;20040;-64
2022/03/03 06:24:18;;;;;;;11.55;3.85;;;-3276.50;73.10;;;;;;5054089;28;20128;-64
2022/03/03 06:29:44;;;;;;;8.90;3.00;;;-3276.50;73.10;;;;;;5052024;28;20090;-64
2022/03/03 06:32:12;;;;;;;4.95;3.28;;;-3276.50;73.20;;;;;;5054695;28;20547;-65
2022/03/03 06:34:40;;;;;;;6.57;2.88;;;-3276.50;73.20;;;;;;5051318;28;20203;-64
2022/03/03 06:37:11;;;;;;;5.25;2.40;;;-3276.50;73.20;;;;;;5053258;28;20080;-64
2022/03/03 06:39:41;;;;;;;7.07;2.47;;;-3276.40;73.40;;;;;;5052641;28;20121;-63
2022/03/03 06:42:09;;;;;;;7.40;3.97;;;-3276.40;73.40;;;;;;5052721;28;20056;-64
2022/03/03 06:44:36;;;;;;;6.93;3.60;;;-3276.50;73.40;;;;;;5053162;28;20048;-66
2022/03/03 06:47:08;;;;;;;6.30;2.97;;;-3276.50;73.30;;;;;;5052396;28;20055;-64
2022/03/03 06:49:36;;;;;;;8.15;3.53;;;-3276.60;73.20;;;;;;5052941;28;20040;-64
2022/03/03 06:52:06;;;;;;;8.02;3.33;;;-3276.60;73.10;;;;;;5055373;28;20043;-64
2022/03/03 06:54:34;;;;;;;6.55;2.80;;;-3276.60;73.00;;;;;;5050787;28;20167;-64
2022/03/03 06:57:02;;;;;;;7.00;3.40;;;-3276.60;73.00;;;;;;5053296;28;20053;-64
2022/03/03 06:59:31;;;;;;;11.95;4.10;;;-3276.60;73.10;;;;;;5051351;28;20120;-64
2022/03/03 07:02:00;;;;;;;10.60;4.07;;;-3276.60;73.00;;;;;;5049341;28;20049;-63
2022/03/03 07:04:32;;;;;;;10.45;4.78;;;-3276.60;72.90;;;;;;5052427;28;20052;-63
2022/03/03 07:07:02;;;;;;;7.47;4.00;;;-3276.70;73.00;;;;;;5051165;28;20081;-64
2022/03/03 07:09:31;;;;;;;11.30;4.60;;;-3276.70;72.90;;;;;;5055856;28;20096;-64
2022/03/03 07:12:01;;;;;;;7.72;3.90;;;-3276.60;73.10;;;;;;5056606;28;20433;-64
2022/03/03 07:14:29;;;;;;;7.05;2.95;;;-3276.70;73.20;;;;;;5054507;28;20052;-64
2022/03/03 07:17:05;;;;;;;8.98;3.53;;;-3276.60;73.30;;;;;;5057393;28;20072;-64
2022/03/03 07:19:50;;;;;;;10.45;3.60;;;-3276.60;73.30;;;;;;5055831;28;20051;-64
2022/03/03 07:22:21;;;;;;;7.82;4.63;;;-3276.70;73.20;;;;;;5057313;28;20044;-64
2022/03/03 07:24:53;;;;;;;9.05;3.85;;;-3276.70;73.10;;;;;;5055581;28;20094;-65
2022/03/03 07:27:22;;;;;;;7.63;3.92;;;0.00;73.10;;;;;;5056436;28;20067;-64
2022/03/03 07:29:56;;;;;;;9.93;3.85;;;0.00;73.20;;;;;;5055899;28;20107;-65
2022/03/03 07:32:33;;;;;;;9.10;2.97;;;0.00;73.30;;;;;;5055123;28;20072;-65
2022/03/03 07:35:07;;;;;;;9.07;4.50;;;0.00;73.10;;;;;;5054298;28;20064;-65
2022/03/03 07:37:40;;;;;;;9.73;4.05;;;0.00;73.10;;;;;;5057656;28;20041;-65
2022/03/03 07:40:09;;;;;;;10.60;4.25;;;0.00;73.10;;;;;;5055085;28;20064;-64
2022/03/03 07:42:37;;;;;;;12.45;4.45;;;0.00;73.00;;;;;;5051065;28;20041;-65
2022/03/03 07:45:08;;;;;;;;;;;0.10;73.10;;;;;;5058465;28;20060;-65
2022/03/03 07:47:36;;;;;;;6.68;3.15;;;0.10;73.10;;;;;;5054369;28;19921;-65
2022/03/03 07:50:06;;;;;;;8.88;3.47;;;0.10;73.10;;;;;;5053175;28;20972;-64
2022/03/03 07:52:34;;;;;;;9.25;4.05;;;0.20;73.00;;;;;;5058710;28;20040;-65
2022/03/03 07:55:02;;;;;;;7.82;3.10;;;0.20;73.00;;;;;;5054299;28;20071;-65
2022/03/03 07:57:36;;;;;;;14.75;4.10;;;0.30;73.10;;;;;;5055739;28;21624;-65
2022/03/03 08:00:08;;;;;;;8.85;3.78;;;0.30;73.00;;;;;;5052431;28;20060;-66
2022/03/03 08:02:35;;;;;;;9.23;4.40;;;0.40;73.00;;;;;;5053000;28;20046;-65
2022/03/03 08:05:06;;;;;;;8.50;4.43;;;0.40;73.10;;;;;;5055394;28;20045;-65
2022/03/03 08:07:43;;;;;;;11.63;4.85;;;0.50;73.00;;;;;;5069626;28;20052;-65
2022/03/03 08:10:13;;;;;;;8.18;4.00;;;0.60;73.00;;;;;;5056337;28;20690;-65
2022/03/03 08:12:42;;;;;;;10.00;4.65;;;0.70;73.00;;;;;;5054977;28;20055;-66
2022/03/03 08:15:12;;;;;;;8.48;4.38;;;0.70;72.80;;;;;;5055337;28;20048;-65
2022/03/03 08:17:40;;;;;;;15.67;4.43;;;0.80;72.70;;;;;;5055256;28;20044;-66
2022/03/03 08:20:10;;;;;;;8.77;4.07;;;0.90;72.40;;;;;;5059448;28;20248;-66
2022/03/03 08:22:40;;;;;;;6.40;4.25;;;1.00;72.30;;;;;;5054254;28;20129;-64
2022/03/03 08:25:10;;;;;;;10.20;4.27;;;1.10;72.20;;;;;;5054972;28;20049;-64
2022/03/03 08:27:39;;;;;;;7.03;4.30;;;1.20;72.10;;;;;;5053180;28;20052;-64
2022/03/03 08:30:08;;;;;;;10.55;4.03;;;1.20;71.90;;;;;;5053898;28;20052;-64
2022/03/03 08:32:39;;;;;;;9.10;4.55;;;1.30;72.10;;;;;;5058219;28;20044;-64
2022/03/03 08:35:15;;;;;;;9.52;4.53;;;1.40;72.30;;;;;;5056989;28;20049;-63
2022/03/03 08:37:45;;;;;;;8.00;3.95;;;1.40;72.30;;;;;;5055220;28;20046;-64
2022/03/03 08:40:15;;;;;;;8.20;3.67;;;1.50;72.20;;;;;;5055878;28;20064;-63
2022/03/03 08:42:46;;;;;;;12.45;4.68;;;1.60;72.40;;;;;;5055888;28;20040;-66
2022/03/03 08:45:14;;;;;;;9.82;4.10;;;1.70;72.30;;;;;;5056037;28;20051;-64
2022/03/03 08:47:44;;;;;;;7.20;3.70;;;1.80;72.30;;;;;;5054826;28;20055;-65
2022/03/03 08:50:14;;;;;;;7.05;3.75;;;1.90;71.70;;;;;;5055878;28;20156;-65
2022/03/03 08:52:43;;;;;;;8.98;4.10;;;2.00;71.10;;;;;;5057321;28;20567;-65
2022/03/03 08:55:12;;;;;;;9.30;3.67;;;2.10;71.10;;;;;;5056857;28;20449;-66
2022/03/03 08:57:40;;;;;;;10.38;4.50;;;2.20;71.00;;;;;;5054929;28;20045;-64
2022/03/03 09:00:11;;;;;;;7.72;4.65;;;2.30;70.80;;;;;;5052498;28;20065;-71
2022/03/03 09:02:40;;;;;;;;;;;2.40;70.50;;;;;;5052576;28;20048;-71
2022/03/03 09:05:16;;;;;;;10.10;4.28;;;2.60;70.10;;;;;;5055356;28;19924;-72
2022/03/03 09:07:44;;;;;;;8.60;4.10;;;2.70;69.30;;;;;;5054404;28;20052;-72
2022/03/03 09:10:12;;;;;;;7.93;4.07;;;2.70;68.70;;;;;;5066088;28;20054;-70
2022/03/03 09:12:39;;;;;;;7.82;5.03;;;2.90;68.60;;;;;;5053375;28;20064;-72
2022/03/03 09:15:08;;;;;;;7.10;4.35;;;3.00;68.30;;;;;;5056173;28;20060;-71
2022/03/03 09:17:36;;;;;;;8.93;4.78;;;3.10;68.10;;;;;;5053883;28;20051;-71
2022/03/03 09:20:06;;;;;;;8.20;4.70;;;3.20;67.70;;;;;;5057693;28;20609;-70
2022/03/03 09:22:35;;;;;;;7.53;4.28;;;3.30;66.50;;;;;;5052857;28;20040;-70
2022/03/03 09:25:03;;;;;;;7.18;3.78;;;3.40;65.90;;;;;;5053012;28;20550;-70
2022/03/03 09:27:30;;;;;;;9.73;3.88;;;3.50;65.90;;;;;;5052908;28;20102;-71
2022/03/03 09:29:57;;;;;;;9.18;4.20;;;3.60;66.30;;;;;;5054603;28;20052;-70
2022/03/03 09:32:25;;;;;;;11.18;4.38;;;3.60;66.50;;;;;;5053444;28;20053;-71
2022/03/03 09:35:01;;;;;;;9.30;3.95;;;3.70;66.50;;;;;;5055484;28;20043;-70
2022/03/03 09:37:29;;;;;;;11.52;4.50;;;3.70;66.40;;;;;;5052484;28;20197;-70
2022/03/03 09:40:01;;;;;;;9.32;5.03;;;3.80;65.50;;;;;;5053297;28;20064;-71
2022/03/03 09:42:34;;;;;;;10.77;4.45;;;3.90;65.80;;;;;;5047850;28;20046;-70
2022/03/03 09:45:02;;;;;;;9.75;4.50;;;4.00;65.60;;;;;;5052694;28;20049;-71
2022/03/03 09:47:29;;;;;;;10.27;3.92;;;4.10;62.60;;;;;;5053982;28;20049;-70
2022/03/03 09:49:57;;;;;;;10.45;3.50;;;4.20;62.70;;;;;;5055999;28;20125;-70
2022/03/03 09:52:24;;;;;;;8.75;4.15;;;4.30;61.50;;;;;;5052907;28;20815;-71
2022/03/03 09:54:54;;;;;;;10.95;4.13;;;4.30;60.90;;;;;;5054813;28;20048;-70
2022/03/03 09:57:24;;;;;;;8.67;4.03;;;4.40;61.40;;;;;;5052036;28;20055;-69
2022/03/03 09:59:56;;;;;;;8.82;4.45;;;4.50;61.90;;;;;;5052469;28;20052;-69
2022/03/03 10:02:24;;;;;;;8.10;3.85;;;4.50;61.70;;;;;;5051575;28;20059;-69
2022/03/03 10:04:56;;;;;;;;;;;4.60;62.30;;;;;;5055090;28;20059;-70
2022/03/03 10:07:25;;;;;;;6.37;3.33;;;4.70;61.50;;;;;;5053375;28;19924;-71
2022/03/03 10:10:11;;;;;;;6.82;3.25;;;4.70;61.40;;;;;;5053973;28;20049;-70
2022/03/03 10:12:45;;;;;;;7.15;4.07;;;4.80;61.30;;;;;;5054583;28;20051;-71
2022/03/03 10:15:17;;;;;;;9.07;4.38;;;4.80;61.10;;;;;;5053062;28;20131;-72
2022/03/03 10:17:45;;;;;;;7.30;3.45;;;4.90;61.10;;;;;;5053490;28;22254;-70
2022/03/03 10:20:13;;;;;;;9.85;4.70;;;5.00;60.70;;;;;;5052747;28;20049;-70
2022/03/03 10:22:45;;;;;;;10.43;4.82;;;5.10;60.70;;;;;;5053981;28;20041;-72
2022/03/03 10:25:27;;;;;;;8.57;4.25;;;5.10;60.90;;;;;;5053586;28;20063;-69
2022/03/03 10:27:55;;;;;;;7.93;3.92;;;5.20;61.30;;;;;;5052912;28;20057;-71
2022/03/03 10:30:23;;;;;;;11.20;5.75;;;5.20;61.70;;;;;;5053398;28;20048;-68
2022/03/03 10:32:50;;;;;;;10.68;4.75;;;5.20;61.80;;;;;;5053013;28;20041;-70
2022/03/03 10:35:19;;;;;;;8.85;5.00;;;5.30;62.00;;;;;;5051778;28;20055;-71
2022/03/03 10:37:48;;;;;;;10.65;4.13;;;5.40;62.50;;;;;;5054184;28;20044;-71
2022/03/03 10:40:17;;;;;;;9.88;4.38;;;5.40;62.90;;;;;;5053622;28;20053;-70
2022/03/03 10:42:46;;;;;;;8.02;3.72;;;5.50;62.80;;;;;;5054060;28;20045;-70
2022/03/03 10:45:19;;;;;;;10.27;4.32;;;5.60;62.20;;;;;;5054449;28;20133;-71
2022/03/03 10:47:48;;;;;;;9.40;4.57;;;5.60;61.10;;;;;;5065757;28;20053;-71
2022/03/03 10:50:15;;;;;;;7.70;3.80;;;5.70;61.40;;;;;;5057285;28;20044;-70
2022/03/03 10:52:44;;;;;;;8.63;3.90;;;5.70;61.10;;;;;;5059090;28;20068;-71
2022/03/03 10:55:16;;;;;;;7.55;3.80;;;5.80;60.70;;;;;;5059913;28;20117;-71
2022/03/03 10:57:46;;;;;;;8.88;3.75;;;5.80;60.00;;;;;;5057391;28;20091;-70
2022/03/03 11:00:18;;;;;;;7.75;3.20;;;5.90;60.20;;;;;;5054611;28;20763;-69
2022/03/03 11:02:48;;;;;;;11.23;4.18;;;5.90;60.10;;;;;;5058401;28;20041;-71
2022/03/03 11:05:18;;;;;;;7.57;3.72;;;5.90;60.20;;;;;;5060491;28;20055;-70
2022/03/03 11:07:48;;;;;;;9.65;3.70;;;6.00;59.50;;;;;;5057293;28;20487;-70
2022/03/03 11:10:16;;;;;;;;;;;6.10;58.10;;;;;;5057041;28;20055;-70
2022/03/03 11:12:45;;;;;;;9.60;3.85;;;6.10;58.50;;;;;;5059295;28;20066;-71
2022/03/03 11:15:17;;;;;;;7.70;3.00;;;6.10;57.90;;;;;;5055891;28;20050;-70
2022/03/03 11:17:46;;;;;;;6.30;3.05;;;6.20;58.20;;;;;;5054763;28;20059;-72
2022/03/03 11:20:17;;;;;;;7.50;3.25;;;6.20;57.30;;;;;;5057380;28;20051;-69
2022/03/03 11:22:46;;;;;;;6.65;3.35;;;6.20;57.90;;;;;;5067047;28;20045;-72
2022/03/03 11:25:19;;;;;;;7.03;3.75;;;6.20;57.40;;;;;;5077723;28;20126;-69
2022/03/03 11:27:47;;;;;;;7.68;3.67;;;6.30;57.70;;;;;;5080463;28;20052;-71
2022/03/03 11:30:19;;;;;;;6.57;3.35;;;6.30;56.60;;;;;;5076680;28;20053;-71
2022/03/03 11:33:07;;;;;;;8.25;3.22;;;6.40;56.90;;;;;;5054191;28;20056;-71
2022/03/03 11:35:48;;;;;;;8.18;3.55;;;6.40;56.90;;;;;;5053477;28;20057;-70
2022/03/03 11:38:15;;;;;;;9.38;3.90;;;6.50;56.70;;;;;;5056441;28;20141;-71
2022/03/03 11:40:56;;;;;;;8.02;3.67;;;6.50;56.80;;;;;;5056557;28;20062;-71
2022/03/03 11:43:25;;;;;;;8.52;3.88;;;6.50;56.20;;;;;;5054508;28;20045;-69
2022/03/03 11:45:56;;;;;;;8.75;3.88;;;6.60;56.60;;;;;;5056399;28;20048;-71
2022/03/03 11:48:23;;;;;;;;;;;6.60;57.00;;;;;;5056017;28;20116;-72
2022/03/03 11:50:51;;;;;;;6.00;3.45;;;6.60;56.80;;;;;;5054762;28;20011;-70
2022/03/03 11:53:22;;;;;;;7.43;3.20;;;6.60;57.00;;;;;;5056759;28;20413;-70
2022/03/03 11:55:57;;;;;;;;;;;6.60;57.00;;;;;;5056214;28;20082;-71
2022/03/03 11:58:28;;;;;;;5.50;3.25;;;6.60;56.80;;;;;;5054238;28;19974;-71
2022/03/03 12:04:04;;;;;;;7.78;3.55;;;6.60;57.00;;;;;;5054761;28;20494;-70
2022/03/03 12:06:40;;;;;;;11.10;3.90;;;6.60;57.30;;;;;;5055815;28;20494;-70
2022/03/03 12:09:24;;;;;;;9.30;4.40;;;6.60;57.20;;;;;;5056337;28;20510;-71
2022/03/03 12:12:07;;;;;;;6.03;3.20;;;6.60;57.40;;;;;;5059182;28;20049;-70
2022/03/03 12:14:36;;;;;;;9.05;3.65;;;6.60;57.40;;;;;;5055243;28;20052;-71
2022/03/03 12:17:40;;;;;;;6.65;3.13;;;6.70;57.10;;;;;;5057078;28;20051;-69
2022/03/03 12:20:34;;;;;;;8.38;3.13;;;6.70;57.20;;;;;;5056752;28;20048;-70
2022/03/03 12:23:10;;;;;;;7.90;3.63;;;6.70;57.30;;;;;;5055112;28;20416;-71
2022/03/03 12:25:59;;;;;;;7.57;3.50;;;6.60;57.40;;;;;;5078828;28;20060;-70
2022/03/03 12:28:27;;;;;;;5.25;3.03;;;6.60;57.50;;;;;;5077918;28;20071;-71
2022/03/03 12:30:55;;;;;;;7.75;3.75;;;6.60;57.50;;;;;;5072560;28;20057;-70
2022/03/03 12:33:28;;;;;;;7.05;3.28;;;6.70;57.40;;;;;;5054359;28;20093;-71
2022/03/03 12:36:06;;;;;;;9.10;3.60;;;6.70;57.50;;;;;;5054702;28;20048;-71
2022/03/03 12:38:39;;;;;;;7.18;3.13;;;6.70;57.20;;;;;;5056659;28;20138;-70
2022/03/03 12:41:09;;;;;;;6.18;2.90;;;6.70;57.00;;;;;;5016717;28;20054;-70
2022/03/03 12:43:40;;;;;;;6.22;3.08;;;6.70;57.00;;;;;;5013299;28;20119;-71
2022/03/03 12:46:09;;;;;;;9.07;3.00;;;6.70;57.20;;;;;;5016700;28;20705;-71
2022/03/03 12:48:39;;;;;;;9.57;3.83;;;6.70;57.40;;;;;;5015672;28;20070;-70
2022/03/03 12:51:10;;;;;;;;;;;6.70;57.20;;;;;;5017728;28;20048;-70
2022/03/03 12:53:38;;;;;;;6.05;3.40;;;6.70;57.30;;;;;;5015921;28;20631;-71
2022/03/03 12:56:07;;;;;;;7.07;3.35;;;6.70;57.30;;;;;;5018515;28;20056;-70
2022/03/03 12:58:38;;;;;;;8.00;3.67;;;6.80;57.00;;;;;;5014476;28;20103;-70
2022/03/03 13:01:05;;;;;;;6.60;3.08;;;6.80;57.10;;;;;;5014564;28;20168;-70
2022/03/03 13:03:33;;;;;;;8.80;3.53;;;6.80;56.70;;;;;;5020177;28;20056;-71
2022/03/03 13:06:08;;;;;;;7.10;3.25;;;6.80;56.60;;;;;;5014599;28;20050;-70
2022/03/03 13:08:37;;;;;;;6.82;3.05;;;6.80;56.40;;;;;;5017046;28;20074;-71
2022/03/03 13:11:06;;;;;;;7.40;3.28;;;6.80;56.00;;;;;;5013174;28;20204;-70
2022/03/03 13:13:57;;;;;;;6.20;3.50;;;6.80;56.30;;;;;;5014204;28;20046;-70